sensor_id;sensor_type;location;lat;lon;timestamp;temperature;humidity
47354;DHT22;50657;48.830;2.282;2022-08-30T00:00:08;29.80;35.60
47354;DHT22;50657;48.830;2.282;2022-08-30T00:02:54;29.80;36.30
47354;DHT22;50657;48.830;2.282;2022-08-30T00:05:21;29.80;35.70
47354;DHT22;50657;48.830;2.282;2022-08-30T00:07:48;29.80;35.70
47354;DHT22;50657;48.830;2.282;2022-08-30T00:10:16;29.70;35.60
47354;DHT22;50657;48.830;2.282;2022-08-30T00:12:43;29.70;35.60
47354;DHT22;50657;48.830;2.282;2022-08-30T00:15:11;29.70;35.60
47354;DHT22;50657;48.830;2.282;2022-08-30T00:17:39;29.70;35.60
47354;DHT22;50657;48.830;2.282;2022-08-30T00:20:10;29.70;35.60
47354;DHT22;50657;48.830;2.282;2022-08-30T00:22:37;29.70;35.60
47354;DHT22;50657;48.830;2.282;2022-08-30T00:25:05;29.70;35.60
47354;DHT22;50657;48.830;2.282;2022-08-30T00:27:33;29.70;35.60
47354;DHT22;50657;48.830;2.282;2022-08-30T00:30:00;29.70;35.60
47354;DHT22;50657;48.830;2.282;2022-08-30T00:32:27;29.70;35.50
47354;DHT22;50657;48.830;2.282;2022-08-30T00:34:54;29.70;35.50
47354;DHT22;50657;48.830;2.282;2022-08-30T00:37:23;29.70;35.50
47354;DHT22;50657;48.830;2.282;2022-08-30T00:39:50;29.70;35.50
47354;DHT22;50657;48.830;2.282;2022-08-30T00:42:18;29.60;35.40
47354;DHT22;50657;48.830;2.282;2022-08-30T00:44:46;29.70;35.50
47354;DHT22;50657;48.830;2.282;2022-08-30T00:47:14;29.60;35.40
47354;DHT22;50657;48.830;2.282;2022-08-30T00:49:44;29.60;35.40
47354;DHT22;50657;48.830;2.282;2022-08-30T00:52:13;29.60;35.40
47354;DHT22;50657;48.830;2.282;2022-08-30T00:54:43;29.60;35.40
47354;DHT22;50657;48.830;2.282;2022-08-30T00:57:11;29.60;35.40
47354;DHT22;50657;48.830;2.282;2022-08-30T00:59:41;29.60;35.40
47354;DHT22;50657;48.830;2.282;2022-08-30T01:02:09;29.60;36.00
47354;DHT22;50657;48.830;2.282;2022-08-30T01:04:37;29.60;35.40
47354;DHT22;50657;48.830;2.282;2022-08-30T01:07:05;29.60;36.00
47354;DHT22;50657;48.830;2.282;2022-08-30T01:09:33;29.50;35.30
47354;DHT22;50657;48.830;2.282;2022-08-30T01:12:02;29.50;35.30
47354;DHT22;50657;48.830;2.282;2022-08-30T01:14:30;29.50;35.30
47354;DHT22;50657;48.830;2.282;2022-08-30T01:16:59;29.50;35.30
47354;DHT22;50657;48.830;2.282;2022-08-30T01:19:32;29.50;35.30
47354;DHT22;50657;48.830;2.282;2022-08-30T01:22:04;29.50;35.30
47354;DHT22;50657;48.830;2.282;2022-08-30T01:24:36;29.50;35.30
47354;DHT22;50657;48.830;2.282;2022-08-30T01:27:03;29.50;35.30
47354;DHT22;50657;48.830;2.282;2022-08-30T01:29:31;29.50;35.30
47354;DHT22;50657;48.830;2.282;2022-08-30T01:31:58;29.50;35.30
47354;DHT22;50657;48.830;2.282;2022-08-30T01:34:25;29.50;35.40
47354;DHT22;50657;48.830;2.282;2022-08-30T01:36:52;29.50;35.30
47354;DHT22;50657;48.830;2.282;2022-08-30T01:39:19;29.50;35.30
47354;DHT22;50657;48.830;2.282;2022-08-30T01:41:47;29.50;35.30
47354;DHT22;50657;48.830;2.282;2022-08-30T01:44:14;29.50;35.30
47354;DHT22;50657;48.830;2.282;2022-08-30T01:46:44;29.50;35.30
47354;DHT22;50657;48.830;2.282;2022-08-30T01:49:13;29.50;35.30
47354;DHT22;50657;48.830;2.282;2022-08-30T01:51:40;29.50;35.30
47354;DHT22;50657;48.830;2.282;2022-08-30T01:54:08;29.50;35.30
47354;DHT22;50657;48.830;2.282;2022-08-30T01:56:35;29.50;35.30
47354;DHT22;50657;48.830;2.282;2022-08-30T01:59:04;29.40;35.20
47354;DHT22;50657;48.830;2.282;2022-08-30T02:01:33;29.50;35.90
47354;DHT22;50657;48.830;2.282;2022-08-30T02:04:02;29.40;35.20
47354;DHT22;50657;48.830;2.282;2022-08-30T02:06:29;29.40;35.20
47354;DHT22;50657;48.830;2.282;2022-08-30T02:08:56;29.40;35.10
47354;DHT22;50657;48.830;2.282;2022-08-30T02:11:23;29.40;35.10
47354;DHT22;50657;48.830;2.282;2022-08-30T02:13:51;29.50;35.20
47354;DHT22;50657;48.830;2.282;2022-08-30T02:16:21;29.40;35.10
47354;DHT22;50657;48.830;2.282;2022-08-30T02:18:49;29.40;35.10
47354;DHT22;50657;48.830;2.282;2022-08-30T02:21:16;29.40;35.20
47354;DHT22;50657;48.830;2.282;2022-08-30T02:23:43;29.40;35.20
47354;DHT22;50657;48.830;2.282;2022-08-30T02:26:11;29.40;35.20
47354;DHT22;50657;48.830;2.282;2022-08-30T02:28:39;29.40;35.20
47354;DHT22;50657;48.830;2.282;2022-08-30T02:31:06;29.40;35.20
47354;DHT22;50657;48.830;2.282;2022-08-30T02:33:34;29.40;35.20
47354;DHT22;50657;48.830;2.282;2022-08-30T02:36:03;29.40;35.20
47354;DHT22;50657;48.830;2.282;2022-08-30T02:38:30;29.40;35.30
47354;DHT22;50657;48.830;2.282;2022-08-30T02:40:57;29.40;35.30
47354;DHT22;50657;48.830;2.282;2022-08-30T02:43:24;29.40;35.30
47354;DHT22;50657;48.830;2.282;2022-08-30T02:45:52;29.40;35.30
47354;DHT22;50657;48.830;2.282;2022-08-30T02:48:19;29.30;35.30
47354;DHT22;50657;48.830;2.282;2022-08-30T02:50:50;29.30;35.30
47354;DHT22;50657;48.830;2.282;2022-08-30T02:53:18;29.30;35.30
47354;DHT22;50657;48.830;2.282;2022-08-30T02:55:47;29.30;35.30
47354;DHT22;50657;48.830;2.282;2022-08-30T02:58:14;29.30;35.30
47354;DHT22;50657;48.830;2.282;2022-08-30T03:00:41;29.40;35.40
47354;DHT22;50657;48.830;2.282;2022-08-30T03:03:08;29.30;35.30
47354;DHT22;50657;48.830;2.282;2022-08-30T03:05:35;29.30;35.30
47354;DHT22;50657;48.830;2.282;2022-08-30T03:08:05;29.30;35.30
47354;DHT22;50657;48.830;2.282;2022-08-30T03:10:32;29.30;35.40
47354;DHT22;50657;48.830;2.282;2022-08-30T03:13:00;29.30;35.40
47354;DHT22;50657;48.830;2.282;2022-08-30T03:15:28;29.30;36.00
47354;DHT22;50657;48.830;2.282;2022-08-30T03:17:55;29.30;35.40
47354;DHT22;50657;48.830;2.282;2022-08-30T03:20:23;29.30;36.10
47354;DHT22;50657;48.830;2.282;2022-08-30T03:22:51;29.30;35.60
47354;DHT22;50657;48.830;2.282;2022-08-30T03:25:20;29.30;35.60
47354;DHT22;50657;48.830;2.282;2022-08-30T03:27:47;29.30;35.70
47354;DHT22;50657;48.830;2.282;2022-08-30T03:30:16;29.30;35.90
47354;DHT22;50657;48.830;2.282;2022-08-30T03:32:44;29.20;36.50
47354;DHT22;50657;48.830;2.282;2022-08-30T03:35:12;29.20;36.00
47354;DHT22;50657;48.830;2.282;2022-08-30T03:37:39;29.20;36.00
47354;DHT22;50657;48.830;2.282;2022-08-30T03:40:08;29.20;36.20
47354;DHT22;50657;48.830;2.282;2022-08-30T03:42:37;29.20;36.30
47354;DHT22;50657;48.830;2.282;2022-08-30T03:45:06;29.20;36.30
47354;DHT22;50657;48.830;2.282;2022-08-30T03:47:34;29.20;36.40
47354;DHT22;50657;48.830;2.282;2022-08-30T03:50:02;29.20;36.50
47354;DHT22;50657;48.830;2.282;2022-08-30T03:52:30;29.20;36.60
47354;DHT22;50657;48.830;2.282;2022-08-30T03:54:57;29.20;36.70
47354;DHT22;50657;48.830;2.282;2022-08-30T03:57:25;29.20;36.80
47354;DHT22;50657;48.830;2.282;2022-08-30T03:59:53;29.20;36.80
47354;DHT22;50657;48.830;2.282;2022-08-30T04:02:20;29.10;36.80
47354;DHT22;50657;48.830;2.282;2022-08-30T04:04:48;29.10;36.90
47354;DHT22;50657;48.830;2.282;2022-08-30T04:07:15;29.10;37.00
47354;DHT22;50657;48.830;2.282;2022-08-30T04:09:44;29.10;37.00
47354;DHT22;50657;48.830;2.282;2022-08-30T04:12:11;29.10;37.10
47354;DHT22;50657;48.830;2.282;2022-08-30T04:14:39;29.10;37.20
47354;DHT22;50657;48.830;2.282;2022-08-30T04:17:07;29.10;37.20
47354;DHT22;50657;48.830;2.282;2022-08-30T04:19:34;29.10;37.30
47354;DHT22;50657;48.830;2.282;2022-08-30T04:22:02;29.10;37.30
47354;DHT22;50657;48.830;2.282;2022-08-30T04:24:29;29.10;37.40
47354;DHT22;50657;48.830;2.282;2022-08-30T04:26:57;29.10;37.50
47354;DHT22;50657;48.830;2.282;2022-08-30T04:29:24;29.10;37.50
47354;DHT22;50657;48.830;2.282;2022-08-30T04:31:51;29.10;37.60
47354;DHT22;50657;48.830;2.282;2022-08-30T04:34:20;29.10;37.70
47354;DHT22;50657;48.830;2.282;2022-08-30T04:36:47;29.10;37.80
47354;DHT22;50657;48.830;2.282;2022-08-30T04:39:15;29.00;37.80
47354;DHT22;50657;48.830;2.282;2022-08-30T04:41:43;29.00;37.90
47354;DHT22;50657;48.830;2.282;2022-08-30T04:44:10;29.00;37.90
47354;DHT22;50657;48.830;2.282;2022-08-30T04:46:37;29.10;38.10
47354;DHT22;50657;48.830;2.282;2022-08-30T04:49:04;29.00;38.00
47354;DHT22;50657;48.830;2.282;2022-08-30T04:51:33;29.00;38.10
47354;DHT22;50657;48.830;2.282;2022-08-30T04:54:00;29.00;38.10
47354;DHT22;50657;48.830;2.282;2022-08-30T04:56:27;29.00;38.20
47354;DHT22;50657;48.830;2.282;2022-08-30T04:58:54;29.00;38.20
47354;DHT22;50657;48.830;2.282;2022-08-30T05:01:24;29.00;38.30
47354;DHT22;50657;48.830;2.282;2022-08-30T05:03:52;29.00;38.30
47354;DHT22;50657;48.830;2.282;2022-08-30T05:06:20;29.00;38.30
47354;DHT22;50657;48.830;2.282;2022-08-30T05:08:49;29.00;38.40
47354;DHT22;50657;48.830;2.282;2022-08-30T05:11:17;29.00;38.40
47354;DHT22;50657;48.830;2.282;2022-08-30T05:13:45;28.90;38.40
47354;DHT22;50657;48.830;2.282;2022-08-30T05:16:12;28.90;38.40
47354;DHT22;50657;48.830;2.282;2022-08-30T05:18:42;28.90;38.40
47354;DHT22;50657;48.830;2.282;2022-08-30T05:21:12;28.90;38.50
47354;DHT22;50657;48.830;2.282;2022-08-30T05:23:40;28.90;38.50
47354;DHT22;50657;48.830;2.282;2022-08-30T05:26:12;28.90;38.50
47354;DHT22;50657;48.830;2.282;2022-08-30T05:28:40;28.80;38.50
47354;DHT22;50657;48.830;2.282;2022-08-30T05:31:12;28.80;38.50
47354;DHT22;50657;48.830;2.282;2022-08-30T05:33:40;28.80;38.60
47354;DHT22;50657;48.830;2.282;2022-08-30T05:36:08;28.80;38.60
47354;DHT22;50657;48.830;2.282;2022-08-30T05:38:36;28.80;38.60
47354;DHT22;50657;48.830;2.282;2022-08-30T05:41:04;28.80;38.60
47354;DHT22;50657;48.830;2.282;2022-08-30T05:43:32;28.80;38.60
47354;DHT22;50657;48.830;2.282;2022-08-30T05:46:00;28.80;38.60
47354;DHT22;50657;48.830;2.282;2022-08-30T05:48:28;28.80;39.20
47354;DHT22;50657;48.830;2.282;2022-08-30T05:51:03;28.80;38.60
47354;DHT22;50657;48.830;2.282;2022-08-30T05:53:30;28.80;38.60
47354;DHT22;50657;48.830;2.282;2022-08-30T05:55:57;28.80;38.60
47354;DHT22;50657;48.830;2.282;2022-08-30T05:58:26;28.80;38.60
47354;DHT22;50657;48.830;2.282;2022-08-30T06:00:54;28.80;38.60
47354;DHT22;50657;48.830;2.282;2022-08-30T06:03:21;28.80;38.60
47354;DHT22;50657;48.830;2.282;2022-08-30T06:05:48;28.80;38.60
47354;DHT22;50657;48.830;2.282;2022-08-30T06:08:19;28.80;38.60
47354;DHT22;50657;48.830;2.282;2022-08-30T06:10:46;28.80;38.60
47354;DHT22;50657;48.830;2.282;2022-08-30T06:13:14;28.80;38.60
47354;DHT22;50657;48.830;2.282;2022-08-30T06:15:41;28.80;38.60
47354;DHT22;50657;48.830;2.282;2022-08-30T06:18:11;28.80;38.60
47354;DHT22;50657;48.830;2.282;2022-08-30T06:20:40;28.80;38.60
47354;DHT22;50657;48.830;2.282;2022-08-30T06:23:08;28.80;38.50
47354;DHT22;50657;48.830;2.282;2022-08-30T06:25:35;28.80;38.50
47354;DHT22;50657;48.830;2.282;2022-08-30T06:28:03;28.80;38.50
47354;DHT22;50657;48.830;2.282;2022-08-30T06:30:31;28.80;38.50
47354;DHT22;50657;48.830;2.282;2022-08-30T06:32:58;28.70;38.40
47354;DHT22;50657;48.830;2.282;2022-08-30T06:35:27;28.70;38.40
47354;DHT22;50657;48.830;2.282;2022-08-30T06:37:56;28.70;38.40
47354;DHT22;50657;48.830;2.282;2022-08-30T06:40:23;28.80;38.50
47354;DHT22;50657;48.830;2.282;2022-08-30T06:42:51;28.80;38.50
47354;DHT22;50657;48.830;2.282;2022-08-30T06:45:19;28.80;38.50
47354;DHT22;50657;48.830;2.282;2022-08-30T06:47:46;28.80;38.50
47354;DHT22;50657;48.830;2.282;2022-08-30T06:50:17;28.80;38.50
47354;DHT22;50657;48.830;2.282;2022-08-30T06:52:46;28.80;38.50
47354;DHT22;50657;48.830;2.282;2022-08-30T06:55:15;28.80;38.40
47354;DHT22;50657;48.830;2.282;2022-08-30T06:57:42;28.80;38.50
47354;DHT22;50657;48.830;2.282;2022-08-30T07:00:12;28.80;38.40
47354;DHT22;50657;48.830;2.282;2022-08-30T07:02:40;28.80;38.40
47354;DHT22;50657;48.830;2.282;2022-08-30T07:05:09;28.80;38.40
47354;DHT22;50657;48.830;2.282;2022-08-30T07:07:37;28.80;38.40
47354;DHT22;50657;48.830;2.282;2022-08-30T07:10:07;28.80;38.30
47354;DHT22;50657;48.830;2.282;2022-08-30T07:12:34;28.80;38.30
47354;DHT22;50657;48.830;2.282;2022-08-30T07:15:03;28.80;38.30
47354;DHT22;50657;48.830;2.282;2022-08-30T07:17:31;28.90;38.30
47354;DHT22;50657;48.830;2.282;2022-08-30T07:20:16;28.80;38.20
47354;DHT22;50657;48.830;2.282;2022-08-30T07:22:44;28.90;38.20
47354;DHT22;50657;48.830;2.282;2022-08-30T07:25:13;28.90;38.20
47354;DHT22;50657;48.830;2.282;2022-08-30T07:27:40;28.90;38.20
47354;DHT22;50657;48.830;2.282;2022-08-30T07:30:08;28.90;38.20
47354;DHT22;50657;48.830;2.282;2022-08-30T07:32:36;28.90;38.20
47354;DHT22;50657;48.830;2.282;2022-08-30T07:35:04;29.00;38.30
47354;DHT22;50657;48.830;2.282;2022-08-30T07:37:31;29.00;38.20
47354;DHT22;50657;48.830;2.282;2022-08-30T07:39:58;29.00;38.20
47354;DHT22;50657;48.830;2.282;2022-08-30T07:42:29;28.90;38.10
47354;DHT22;50657;48.830;2.282;2022-08-30T07:44:56;29.00;38.10
47354;DHT22;50657;48.830;2.282;2022-08-30T07:47:23;28.90;38.10
47354;DHT22;50657;48.830;2.282;2022-08-30T07:49:50;29.00;38.10
47354;DHT22;50657;48.830;2.282;2022-08-30T07:52:17;29.00;38.10
47354;DHT22;50657;48.830;2.282;2022-08-30T07:54:44;29.00;38.00
47354;DHT22;50657;48.830;2.282;2022-08-30T07:57:11;29.00;38.00
47354;DHT22;50657;48.830;2.282;2022-08-30T07:59:39;29.00;38.00
47354;DHT22;50657;48.830;2.282;2022-08-30T08:02:07;29.00;38.00
47354;DHT22;50657;48.830;2.282;2022-08-30T08:04:34;29.00;37.90
47354;DHT22;50657;48.830;2.282;2022-08-30T08:07:01;29.10;38.60
47354;DHT22;50657;48.830;2.282;2022-08-30T08:09:28;29.00;37.90
47354;DHT22;50657;48.830;2.282;2022-08-30T08:11:55;29.10;37.90
47354;DHT22;50657;48.830;2.282;2022-08-30T08:14:22;29.10;37.90
47354;DHT22;50657;48.830;2.282;2022-08-30T08:16:50;29.10;37.80
47354;DHT22;50657;48.830;2.282;2022-08-30T08:19:17;29.10;37.80
47354;DHT22;50657;48.830;2.282;2022-08-30T08:21:45;29.10;37.80
47354;DHT22;50657;48.830;2.282;2022-08-30T08:24:12;29.10;37.70
47354;DHT22;50657;48.830;2.282;2022-08-30T08:26:39;29.10;37.70
47354;DHT22;50657;48.830;2.282;2022-08-30T08:29:08;29.10;38.40
47354;DHT22;50657;48.830;2.282;2022-08-30T08:31:36;29.10;37.60
47354;DHT22;50657;48.830;2.282;2022-08-30T08:34:04;29.10;37.60
47354;DHT22;50657;48.830;2.282;2022-08-30T08:36:32;29.20;37.60
47354;DHT22;50657;48.830;2.282;2022-08-30T08:38:59;29.20;37.50
47354;DHT22;50657;48.830;2.282;2022-08-30T08:41:41;29.20;37.50
47354;DHT22;50657;48.830;2.282;2022-08-30T08:44:24;29.20;37.50
47354;DHT22;50657;48.830;2.282;2022-08-30T08:46:57;29.20;37.40
47354;DHT22;50657;48.830;2.282;2022-08-30T08:49:29;29.20;37.40
47354;DHT22;50657;48.830;2.282;2022-08-30T08:51:57;29.20;37.40
47354;DHT22;50657;48.830;2.282;2022-08-30T08:54:46;29.30;37.50
47354;DHT22;50657;48.830;2.282;2022-08-30T08:57:14;29.30;37.40
47354;DHT22;50657;48.830;2.282;2022-08-30T08:59:42;29.30;37.40
47354;DHT22;50657;48.830;2.282;2022-08-30T09:02:23;29.30;37.40
47354;DHT22;50657;48.830;2.282;2022-08-30T09:04:54;29.40;37.40
47354;DHT22;50657;48.830;2.282;2022-08-30T09:07:25;29.30;37.40
47354;DHT22;50657;48.830;2.282;2022-08-30T09:09:56;29.40;37.40
47354;DHT22;50657;48.830;2.282;2022-08-30T09:12:24;29.40;37.40
47354;DHT22;50657;48.830;2.282;2022-08-30T09:14:54;29.40;37.40
47354;DHT22;50657;48.830;2.282;2022-08-30T09:17:22;29.40;38.00
47354;DHT22;50657;48.830;2.282;2022-08-30T09:19:58;29.40;38.00
47354;DHT22;50657;48.830;2.282;2022-08-30T09:22:31;29.50;37.40
47354;DHT22;50657;48.830;2.282;2022-08-30T09:25:01;29.40;37.30
47354;DHT22;50657;48.830;2.282;2022-08-30T09:27:32;29.50;37.40
47354;DHT22;50657;48.830;2.282;2022-08-30T09:30:03;29.40;37.30
47354;DHT22;50657;48.830;2.282;2022-08-30T09:32:34;29.50;37.40
47354;DHT22;50657;48.830;2.282;2022-08-30T09:35:06;29.50;37.40
47354;DHT22;50657;48.830;2.282;2022-08-30T09:37:37;29.50;37.30
47354;DHT22;50657;48.830;2.282;2022-08-30T09:40:14;29.50;37.30
47354;DHT22;50657;48.830;2.282;2022-08-30T09:43:02;29.50;37.30
47354;DHT22;50657;48.830;2.282;2022-08-30T09:45:32;29.60;37.30
47354;DHT22;50657;48.830;2.282;2022-08-30T09:48:19;29.60;37.30
47354;DHT22;50657;48.830;2.282;2022-08-30T09:50:51;29.60;37.30
47354;DHT22;50657;48.830;2.282;2022-08-30T09:53:24;29.60;37.30
47354;DHT22;50657;48.830;2.282;2022-08-30T09:56:02;29.60;37.20
47354;DHT22;50657;48.830;2.282;2022-08-30T09:58:54;29.60;37.20
47354;DHT22;50657;48.830;2.282;2022-08-30T10:01:28;29.70;37.30
47354;DHT22;50657;48.830;2.282;2022-08-30T10:04:01;29.60;37.20
47354;DHT22;50657;48.830;2.282;2022-08-30T10:06:35;29.70;37.30
47354;DHT22;50657;48.830;2.282;2022-08-30T10:09:14;29.70;37.30
47354;DHT22;50657;48.830;2.282;2022-08-30T10:11:51;29.70;37.20
47354;DHT22;50657;48.830;2.282;2022-08-30T10:17:17;29.70;37.20
47354;DHT22;50657;48.830;2.282;2022-08-30T10:20:02;29.80;37.30
47354;DHT22;50657;48.830;2.282;2022-08-30T10:22:36;29.70;37.20
47354;DHT22;50657;48.830;2.282;2022-08-30T10:25:09;29.70;37.20
47354;DHT22;50657;48.830;2.282;2022-08-30T10:27:42;29.80;37.30
47354;DHT22;50657;48.830;2.282;2022-08-30T10:30:14;29.80;37.20
47354;DHT22;50657;48.830;2.282;2022-08-30T10:32:47;29.80;37.20
47354;DHT22;50657;48.830;2.282;2022-08-30T10:35:18;29.80;37.20
47354;DHT22;50657;48.830;2.282;2022-08-30T10:37:50;29.80;37.10
47354;DHT22;50657;48.830;2.282;2022-08-30T10:40:25;29.80;37.10
47354;DHT22;50657;48.830;2.282;2022-08-30T10:43:21;29.80;37.10
47354;DHT22;50657;48.830;2.282;2022-08-30T10:45:52;29.80;37.10
47354;DHT22;50657;48.830;2.282;2022-08-30T10:48:26;29.80;37.10
47354;DHT22;50657;48.830;2.282;2022-08-30T10:50:58;29.80;37.00
47354;DHT22;50657;48.830;2.282;2022-08-30T10:53:33;29.90;37.10
47354;DHT22;50657;48.830;2.282;2022-08-30T10:56:07;29.90;37.10
47354;DHT22;50657;48.830;2.282;2022-08-30T10:58:38;29.90;37.10
47354;DHT22;50657;48.830;2.282;2022-08-30T11:01:16;29.90;37.10
47354;DHT22;50657;48.830;2.282;2022-08-30T11:04:12;30.00;37.10
47354;DHT22;50657;48.830;2.282;2022-08-30T11:06:46;30.00;37.10
47354;DHT22;50657;48.830;2.282;2022-08-30T11:09:30;29.90;37.70
47354;DHT22;50657;48.830;2.282;2022-08-30T11:12:26;29.90;37.00
47354;DHT22;50657;48.830;2.282;2022-08-30T11:14:56;30.00;37.10
47354;DHT22;50657;48.830;2.282;2022-08-30T11:17:26;29.90;37.00
47354;DHT22;50657;48.830;2.282;2022-08-30T11:19:57;30.00;37.10
47354;DHT22;50657;48.830;2.282;2022-08-30T11:22:28;30.00;37.10
47354;DHT22;50657;48.830;2.282;2022-08-30T11:25:05;30.00;37.00
47354;DHT22;50657;48.830;2.282;2022-08-30T11:27:44;30.00;37.10
47354;DHT22;50657;48.830;2.282;2022-08-30T11:30:45;30.00;37.00
47354;DHT22;50657;48.830;2.282;2022-08-30T11:33:39;30.00;36.90
47354;DHT22;50657;48.830;2.282;2022-08-30T11:36:07;30.10;37.00
47354;DHT22;50657;48.830;2.282;2022-08-30T11:38:59;30.00;37.00
47354;DHT22;50657;48.830;2.282;2022-08-30T11:41:35;30.00;37.00
47354;DHT22;50657;48.830;2.282;2022-08-30T11:44:24;30.00;37.00
47354;DHT22;50657;48.830;2.282;2022-08-30T11:46:53;30.10;37.00
47354;DHT22;50657;48.830;2.282;2022-08-30T11:49:41;30.00;37.00
47354;DHT22;50657;48.830;2.282;2022-08-30T11:52:23;30.10;37.00
47354;DHT22;50657;48.830;2.282;2022-08-30T11:55:21;30.10;37.00
47354;DHT22;50657;48.830;2.282;2022-08-30T11:57:57;30.10;37.00
47354;DHT22;50657;48.830;2.282;2022-08-30T12:00:34;30.10;37.00
47354;DHT22;50657;48.830;2.282;2022-08-30T12:03:03;30.10;37.10
47354;DHT22;50657;48.830;2.282;2022-08-30T12:05:55;30.10;37.00
47354;DHT22;50657;48.830;2.282;2022-08-30T12:14:35;30.20;37.10
47354;DHT22;50657;48.830;2.282;2022-08-30T12:17:12;30.20;37.80
47354;DHT22;50657;48.830;2.282;2022-08-30T12:20:00;30.20;37.10
47354;DHT22;50657;48.830;2.282;2022-08-30T12:22:29;30.20;37.20
47354;DHT22;50657;48.830;2.282;2022-08-30T12:25:14;30.20;37.10
47354;DHT22;50657;48.830;2.282;2022-08-30T12:27:43;30.30;37.20
47354;DHT22;50657;48.830;2.282;2022-08-30T12:30:12;30.20;37.10
47354;DHT22;50657;48.830;2.282;2022-08-30T12:32:43;30.30;37.20
47354;DHT22;50657;48.830;2.282;2022-08-30T12:35:19;30.30;37.10
47354;DHT22;50657;48.830;2.282;2022-08-30T12:37:56;30.30;37.20
47354;DHT22;50657;48.830;2.282;2022-08-30T12:40:25;30.30;37.10
47354;DHT22;50657;48.830;2.282;2022-08-30T12:42:54;30.30;37.10
47354;DHT22;50657;48.830;2.282;2022-08-30T12:45:26;30.30;37.10
47354;DHT22;50657;48.830;2.282;2022-08-30T12:47:56;30.30;37.10
47354;DHT22;50657;48.830;2.282;2022-08-30T12:50:27;30.30;37.10
47354;DHT22;50657;48.830;2.282;2022-08-30T12:52:57;30.30;37.10
47354;DHT22;50657;48.830;2.282;2022-08-30T12:55:27;30.30;37.10
47354;DHT22;50657;48.830;2.282;2022-08-30T12:57:58;30.40;37.10
47354;DHT22;50657;48.830;2.282;2022-08-30T13:00:28;30.40;37.10
47354;DHT22;50657;48.830;2.282;2022-08-30T13:03:00;30.40;37.10
47354;DHT22;50657;48.830;2.282;2022-08-30T13:05:45;30.40;37.20
47354;DHT22;50657;48.830;2.282;2022-08-30T13:08:17;30.40;37.10
47354;DHT22;50657;48.830;2.282;2022-08-30T13:10:56;30.40;37.10
47354;DHT22;50657;48.830;2.282;2022-08-30T13:13:42;30.40;37.10
47354;DHT22;50657;48.830;2.282;2022-08-30T13:16:23;30.50;37.20
47354;DHT22;50657;48.830;2.282;2022-08-30T13:18:51;30.50;37.20
47354;DHT22;50657;48.830;2.282;2022-08-30T13:21:25;30.40;37.10
47354;DHT22;50657;48.830;2.282;2022-08-30T13:23:56;30.50;37.20
47354;DHT22;50657;48.830;2.282;2022-08-30T13:26:24;30.50;37.20
47354;DHT22;50657;48.830;2.282;2022-08-30T13:28:53;30.50;37.20
47354;DHT22;50657;48.830;2.282;2022-08-30T13:31:24;30.50;37.20
47354;DHT22;50657;48.830;2.282;2022-08-30T13:33:52;30.50;37.20
47354;DHT22;50657;48.830;2.282;2022-08-30T13:36:20;30.50;37.20
47354;DHT22;50657;48.830;2.282;2022-08-30T13:38:49;30.50;37.20
47354;DHT22;50657;48.830;2.282;2022-08-30T13:41:17;30.50;37.20
47354;DHT22;50657;48.830;2.282;2022-08-30T13:43:45;30.50;37.80
47354;DHT22;50657;48.830;2.282;2022-08-30T13:46:14;30.60;37.20
47354;DHT22;50657;48.830;2.282;2022-08-30T13:48:43;30.60;37.30
47354;DHT22;50657;48.830;2.282;2022-08-30T13:51:11;30.60;37.30
47354;DHT22;50657;48.830;2.282;2022-08-30T13:53:38;30.60;37.30
47354;DHT22;50657;48.830;2.282;2022-08-30T13:56:06;30.60;37.30
47354;DHT22;50657;48.830;2.282;2022-08-30T13:58:33;30.60;37.30
47354;DHT22;50657;48.830;2.282;2022-08-30T14:01:00;30.60;37.30
47354;DHT22;50657;48.830;2.282;2022-08-30T14:03:27;30.70;37.40
47354;DHT22;50657;48.830;2.282;2022-08-30T14:05:56;30.70;37.30
47354;DHT22;50657;48.830;2.282;2022-08-30T14:08:26;30.70;37.30
47354;DHT22;50657;48.830;2.282;2022-08-30T14:10:54;30.80;37.40
47354;DHT22;50657;48.830;2.282;2022-08-30T14:13:21;30.70;37.30
47354;DHT22;50657;48.830;2.282;2022-08-30T14:15:49;30.80;37.30
47354;DHT22;50657;48.830;2.282;2022-08-30T14:18:16;30.80;37.30
47354;DHT22;50657;48.830;2.282;2022-08-30T14:20:44;30.80;37.30
47354;DHT22;50657;48.830;2.282;2022-08-30T14:23:13;30.90;37.30
47354;DHT22;50657;48.830;2.282;2022-08-30T14:25:40;30.90;37.30
47354;DHT22;50657;48.830;2.282;2022-08-30T14:28:08;30.90;37.20
47354;DHT22;50657;48.830;2.282;2022-08-30T14:30:35;30.90;37.20
47354;DHT22;50657;48.830;2.282;2022-08-30T14:33:03;30.90;37.20
47354;DHT22;50657;48.830;2.282;2022-08-30T14:35:31;30.90;37.20
47354;DHT22;50657;48.830;2.282;2022-08-30T14:37:58;30.90;37.10
47354;DHT22;50657;48.830;2.282;2022-08-30T14:40:26;31.00;37.20
47354;DHT22;50657;48.830;2.282;2022-08-30T14:42:53;31.00;37.10
47354;DHT22;50657;48.830;2.282;2022-08-30T14:45:21;31.00;37.10
47354;DHT22;50657;48.830;2.282;2022-08-30T14:47:48;31.00;37.10
47354;DHT22;50657;48.830;2.282;2022-08-30T14:50:15;31.00;37.10
47354;DHT22;50657;48.830;2.282;2022-08-30T14:52:43;31.00;37.70
47354;DHT22;50657;48.830;2.282;2022-08-30T14:55:10;31.10;37.10
47354;DHT22;50657;48.830;2.282;2022-08-30T14:57:39;31.10;37.00
47354;DHT22;50657;48.830;2.282;2022-08-30T15:00:10;31.10;37.00
47354;DHT22;50657;48.830;2.282;2022-08-30T15:02:38;31.20;37.00
47354;DHT22;50657;48.830;2.282;2022-08-30T15:05:06;31.20;37.00
47354;DHT22;50657;48.830;2.282;2022-08-30T15:07:33;31.20;36.90
47354;DHT22;50657;48.830;2.282;2022-08-30T15:10:01;31.20;36.90
47354;DHT22;50657;48.830;2.282;2022-08-30T15:12:28;31.20;36.80
47354;DHT22;50657;48.830;2.282;2022-08-30T15:14:56;31.30;36.90
47354;DHT22;50657;48.830;2.282;2022-08-30T15:17:24;31.30;36.80
47354;DHT22;50657;48.830;2.282;2022-08-30T15:19:51;31.30;36.80
47354;DHT22;50657;48.830;2.282;2022-08-30T15:22:18;31.40;36.80
47354;DHT22;50657;48.830;2.282;2022-08-30T15:24:46;31.40;36.70
47354;DHT22;50657;48.830;2.282;2022-08-30T15:27:14;31.40;36.70
47354;DHT22;50657;48.830;2.282;2022-08-30T15:29:41;31.40;36.70
47354;DHT22;50657;48.830;2.282;2022-08-30T15:32:09;31.50;36.70
47354;DHT22;50657;48.830;2.282;2022-08-30T15:34:36;31.50;36.60
47354;DHT22;50657;48.830;2.282;2022-08-30T15:37:03;31.50;36.60
47354;DHT22;50657;48.830;2.282;2022-08-30T15:39:31;31.50;36.50
47354;DHT22;50657;48.830;2.282;2022-08-30T15:41:58;31.60;36.60
47354;DHT22;50657;48.830;2.282;2022-08-30T15:44:25;31.60;36.50
47354;DHT22;50657;48.830;2.282;2022-08-30T15:46:52;31.60;36.50
47354;DHT22;50657;48.830;2.282;2022-08-30T15:49:23;31.60;36.50
47354;DHT22;50657;48.830;2.282;2022-08-30T15:51:51;31.60;36.50
47354;DHT22;50657;48.830;2.282;2022-08-30T15:54:21;31.60;36.40
47354;DHT22;50657;48.830;2.282;2022-08-30T15:56:48;31.60;36.40